Time;durP1;ratioP1;P1;durP2;ratioP2;P2;SDS_P1;SDS_P2;PMS_P1;PMS_P2;Temp;Humidity;BMP_temperature;BMP_pressure;BME280_temperature;BME280_humidity;BME280_pressure;Samples;Min_cycle;Max_cycle;Signal;HPM_P1;HPM_P2
2023/01/19 00:00:04;;;;;;;1.85;0.70;;;;;;;;;;20946235;28;20052;-69
2023/01/19 00:10:06;;;;;;;4.50;0.73;;;;;;;;;;20948349;28;20078;-70
2023/01/19 00:20:09;;;;;;;1.70;0.60;;;;;;;;;;20949836;28;20496;-65
2023/01/19 00:30:11;;;;;;;1.58;0.70;;;;;;;;;;20935881;28;20056;-71
2023/01/19 00:40:13;;;;;;;3.13;1.15;;;;;;;;;;20932108;28;20143;-65
2023/01/19 00:50:16;;;;;;;7.97;1.30;;;;;;;;;;20932511;28;20045;-66
2023/01/19 01:00:18;;;;;;;1.65;0.98;;;;;;;;;;20929657;28;20489;-67
2023/01/19 01:10:23;;;;;;;2.92;1.00;;;;;;;;;;20930218;28;20105;-67
2023/01/19 01:20:26;;;;;;;4.18;1.00;;;;;;;;;;20932157;28;20093;-66
2023/01/19 01:30:28;;;;;;;2.55;0.77;;;;;;;;;;20929671;28;20045;-67
2023/01/19 01:40:32;;;;;;;1.77;0.80;;;;;;;;;;20931019;28;20060;-64
2023/01/19 01:50:34;;;;;;;3.08;0.65;;;;;;;;;;20923411;28;20064;-66
2023/01/19 02:21:22;;;;;;;1.98;0.90;;;;;;;;;;20919889;28;20102;-67
2023/01/19 02:31:25;;;;;;;3.07;1.10;;;;;;;;;;20918603;28;20045;-67
2023/01/19 02:41:30;;;;;;;1.77;0.57;;;;;;;;;;20918751;28;20057;-67
2023/01/19 02:51:34;;;;;;;2.95;0.90;;;;;;;;;;20927644;28;20091;-65
2023/01/19 03:01:52;;;;;;;2.58;0.70;;;;;;;;;;20918065;28;20512;-65
2023/01/19 03:12:04;;;;;;;1.20;0.70;;;;;;;;;;20917909;28;20056;-69
2023/01/19 03:22:14;;;;;;;1.53;0.60;;;;;;;;;;20916429;28;20052;-69
2023/01/19 03:32:21;;;;;;;2.05;0.70;;;;;;;;;;20923813;28;20130;-65
2023/01/19 03:42:25;;;;;;;;;;;;;;;;;;20933832;28;20056;-63
2023/01/19 03:52:32;;;;;;;2.72;0.70;;;;;;;;;;20934074;28;19969;-64
2023/01/19 04:02:35;;;;;;;2.38;0.73;;;;;;;;;;20934503;28;20049;-65
2023/01/19 04:12:39;;;;;;;1.95;0.70;;;;;;;;;;20937560;28;20374;-67
2023/01/19 04:22:41;;;;;;;3.38;1.02;;;;;;;;;;20947527;28;20566;-65
2023/01/19 04:32:46;;;;;;;1.67;0.70;;;;;;;;;;20941149;28;20053;-67
2023/01/19 04:42:50;;;;;;;3.03;0.73;;;;;;;;;;20959512;28;20064;-67
2023/01/19 04:52:53;;;;;;;2.15;0.90;;;;;;;;;;20942733;28;20108;-67
2023/01/19 05:02:55;;;;;;;1.23;0.60;;;;;;;;;;20944960;28;20049;-71
2023/01/19 05:12:57;;;;;;;1.45;0.70;;;;;;;;;;20942063;28;20390;-73
2023/01/19 05:23:00;;;;;;;1.52;0.70;;;;;;;;;;20934488;28;20140;-67
2023/01/19 05:33:03;;;;;;;1.42;0.70;;;;;;;;;;20929941;28;20163;-71
2023/01/19 05:43:05;;;;;;;10.00;1.35;;;;;;;;;;20922949;28;20057;-70
2023/01/19 05:53:07;;;;;;;1.80;0.80;;;;;;;;;;20921512;28;20053;-64
2023/01/19 06:03:09;;;;;;;2.65;0.80;;;;;;;;;;20921136;28;20045;-64
2023/01/19 06:13:11;;;;;;;1.13;0.80;;;;;;;;;;20919658;28;20045;-66
2023/01/19 06:23:13;;;;;;;2.83;0.80;;;;;;;;;;20916200;28;20103;-64
2023/01/19 06:33:16;;;;;;;4.25;0.93;;;;;;;;;;20917480;28;20056;-65
2023/01/19 06:43:19;;;;;;;4.15;2.30;;;;;;;;;;20917363;28;20481;-65
2023/01/19 06:53:21;;;;;;;2.65;0.80;;;;;;;;;;20915790;28;20422;-63
2023/01/19 07:03:24;;;;;;;2.55;1.05;;;;;;;;;;20915455;28;20059;-65
2023/01/19 07:13:27;;;;;;;4.80;1.42;;;;;;;;;;20917161;28;20044;-64
2023/01/19 07:23:29;;;;;;;2.67;1.00;;;;;;;;;;20917574;28;20057;-69
2023/01/19 07:33:31;;;;;;;2.20;1.08;;;;;;;;;;20923485;28;20079;-66
2023/01/19 07:43:34;;;;;;;2.47;1.13;;;;;;;;;;20925214;28;20048;-64
2023/01/19 07:53:36;;;;;;;3.65;1.50;;;;;;;;;;20922936;28;20053;-73
2023/01/19 08:03:38;;;;;;;3.38;1.13;;;;;;;;;;20924088;28;20495;-74
2023/01/19 08:13:40;;;;;;;2.95;1.20;;;;;;;;;;20923259;28;20056;-70
2023/01/19 08:23:43;;;;;;;3.47;1.30;;;;;;;;;;20933934;28;20053;-72
2023/01/19 08:33:44;;;;;;;2.83;1.77;;;;;;;;;;20930866;28;20386;-72
2023/01/19 08:43:48;;;;;;;5.95;1.60;;;;;;;;;;20929999;28;20401;-65
2023/01/19 08:53:50;;;;;;;3.83;1.02;;;;;;;;;;20927390;28;20056;-62
2023/01/19 09:03:53;;;;;;;3.03;1.00;;;;;;;;;;20933443;28;20048;-66
2023/01/19 09:13:55;;;;;;;4.38;1.27;;;;;;;;;;20932488;28;20041;-62
2023/01/19 09:23:57;;;;;;;3.78;0.90;;;;;;;;;;20926332;28;20416;-62
2023/01/19 09:33:59;;;;;;;5.93;1.13;;;;;;;;;;20921811;28;20513;-62
2023/01/19 09:44:02;;;;;;;2.40;0.93;;;;;;;;;;20922892;28;20049;-65
2023/01/19 09:54:15;;;;;;;4.32;1.17;;;;;;;;;;20921149;28;20053;-63
2023/01/19 10:04:19;;;;;;;3.90;1.10;;;;;;;;;;20920178;28;20072;-63
2023/01/19 10:14:48;;;;;;;2.63;1.00;;;;;;;;;;20919991;28;20052;-65
2023/01/19 10:24:55;;;;;;;4.45;1.00;;;;;;;;;;20918875;28;20395;-63
2023/01/19 10:34:58;;;;;;;4.78;1.65;;;;;;;;;;20925525;28;20076;-69
2023/01/19 10:45:01;;;;;;;2.80;0.82;;;;;;;;;;20936006;28;20143;-58
2023/01/19 10:55:05;;;;;;;2.47;0.98;;;7.90;54.90;;;;;;21010362;28;20091;-63
2023/01/19 11:05:25;;;;;;;3.38;1.00;;;7.60;50.00;;;;;;20999705;28;20117;-67
2023/01/19 11:15:29;;;;;;;8.93;4.78;;;;;;;;;;21000212;28;20580;-66
2023/01/19 11:25:34;;;;;;;4.10;1.10;;;7.30;50.90;;;;;;20998647;28;20063;-64
2023/01/19 11:35:40;;;;;;;4.07;1.05;;;7.60;50.30;;;;;;20979945;28;20141;-63
2023/01/19 11:45:44;;;;;;;2.42;1.10;;;7.90;49.00;;;;;;20963181;28;20143;-68
2023/01/19 11:55:52;;;;;;;2.30;1.00;;;8.40;49.10;;;;;;21006034;28;20044;-66
2023/01/19 12:05:59;;;;;;;5.80;1.70;;;8.60;49.20;;;;;;21012560;28;20140;-65
2023/01/19 12:16:04;;;;;;;4.65;1.42;;;8.70;49.40;;;;;;21013710;28;20055;-65
2023/01/19 12:26:15;;;;;;;4.20;1.65;;;8.70;49.80;;;;;;21009944;28;20048;-65
2023/01/19 12:36:29;;;;;;;3.22;1.30;;;8.60;48.80;;;;;;21007920;28;20059;-65
2023/01/19 12:46:31;;;;;;;2.95;2.22;;;;;;;;;;20993510;28;20049;-66
2023/01/19 12:56:34;;;;;;;2.60;1.30;;;;;;;;;;21009124;28;20113;-68
2023/01/19 13:06:48;;;;;;;2.53;1.15;;;;;;;;;;21005310;28;20118;-65
2023/01/19 13:16:55;;;;;;;3.70;1.50;;;;;;;;;;21003104;28;20055;-67
2023/01/19 13:27:02;;;;;;;5.53;1.30;;;;;;;;;;21005476;28;20049;-69
2023/01/19 13:37:05;;;;;;;4.80;2.05;;;;;;;;;;21004033;28;20125;-68
2023/01/19 13:47:12;;;;;;;4.93;1.88;;;;;;;;;;21002052;28;20055;-69
2023/01/19 13:57:30;;;;;;;3.28;1.52;;;;;;;;;;21001635;28;20408;-67
2023/01/19 14:07:32;;;;;;;2.78;1.33;;;;;;;;;;21001013;28;20052;-66
2023/01/19 14:17:34;;;;;;;4.63;1.90;;;;;;;;;;20999225;28;20044;-67
2023/01/19 14:27:36;;;;;;;5.13;1.77;;;;;;;;;;20998372;28;20056;-67
2023/01/19 14:37:48;;;;;;;4.40;1.75;;;;;;;;;;20999163;28;20056;-65
2023/01/19 14:48:13;;;;;;;4.38;1.40;;;;;;;;;;20998050;28;20400;-66
2023/01/19 14:58:17;;;;;;;3.85;1.80;;;;;;;;;;20986952;28;20476;-68
2023/01/19 15:08:29;;;;;;;4.45;2.08;;;;;;;;;;20996391;28;20135;-62
2023/01/19 15:18:31;;;;;;;4.47;1.30;;;;;;;;;;20996581;28;20056;-66
2023/01/19 15:28:33;;;;;;;6.32;2.40;;;;;;;;;;20996135;28;20049;-64
2023/01/19 15:38:35;;;;;;;5.43;1.88;;;;;;;;;;20996099;28;20492;-67
2023/01/19 15:48:37;;;;;;;10.07;4.15;;;;;;;;;;20962577;28;20095;-65
2023/01/19 15:58:39;;;;;;;5.70;1.50;;;;;;;;;;20995943;28;20053;-65
2023/01/19 16:08:41;;;;;;;6.38;1.70;;;;;;;;;;20994866;28;20127;-66
2023/01/19 16:18:43;;;;;;;5.10;2.00;;;;;;;;;;20994217;28;20088;-64
2023/01/19 16:28:45;;;;;;;6.22;1.88;;;;;;;;;;20993434;28;20052;-67
2023/01/19 16:38:47;;;;;;;4.38;1.65;;;;;;;;;;20998691;28;20515;-66
2023/01/19 16:48:49;;;;;;;3.53;1.55;;;;;;;;;;21008851;28;20048;-66
2023/01/19 16:58:55;;;;;;;5.25;1.75;;;;;;;;;;21007422;28;20133;-64
2023/01/19 17:08:57;;;;;;;4.88;2.00;;;;;;;;;;21006115;28;20053;-66
2023/01/19 17:19:00;;;;;;;9.77;2.13;;;;;;;;;;21005084;28;20435;-64
2023/01/19 17:29:03;;;;;;;7.22;2.08;;;;;;;;;;21005350;28;20401;-65
2023/01/19 17:39:07;;;;;;;4.88;1.90;;;;;;;;;;21004286;28;20458;-63
2023/01/19 17:49:10;;;;;;;5.50;2.03;;;;;;;;;;21003634;28;20044;-64
2023/01/19 17:59:12;;;;;;;7.72;2.13;;;;;;;;;;21002592;28;20059;-62
2023/01/19 18:09:14;;;;;;;4.85;2.08;;;;;;;;;;21001182;28;20044;-63
2023/01/19 18:19:15;;;;;;;5.70;2.50;;;;;;;;;;21000267;28;20056;-60
2023/01/19 18:29:19;;;;;;;5.90;2.05;;;;;;;;;;21001010;28;20097;-66
2023/01/19 18:39:21;;;;;;;4.00;1.95;;;;;;;;;;20999239;28;20389;-66
2023/01/19 18:49:23;;;;;;;7.65;2.28;;;;;;;;;;21000308;28;20055;-66
2023/01/19 18:59:25;;;;;;;7.32;2.70;;;;;;;;;;20998700;28;20052;-65
2023/01/19 19:09:27;;;;;;;4.32;1.73;;;;;;;;;;20997070;28;20048;-64
2023/01/19 19:19:29;;;;;;;6.50;1.70;;;;;;;;;;20997292;28;20102;-66
2023/01/19 19:29:32;;;;;;;4.70;1.63;;;;;;;;;;20997742;28;20174;-63
2023/01/19 19:39:34;;;;;;;5.03;2.03;;;;;;;;;;20999189;28;20056;-60
2023/01/19 19:49:36;;;;;;;4.57;1.30;;;;;;;;;;20997178;28;20094;-62
2023/01/19 19:59:38;;;;;;;4.90;1.40;;;;;;;;;;20996363;28;20439;-64
2023/01/19 20:09:40;;;;;;;5.32;1.58;;;;;;;;;;20993690;28;20080;-65
2023/01/19 20:19:44;;;;;;;4.10;1.45;;;;;;;;;;21008228;28;20424;-65
2023/01/19 20:29:50;;;;;;;4.43;2.00;;;;;;;;;;21008492;28;20045;-65
2023/01/19 20:39:52;;;;;;;2.83;1.30;;;;;;;;;;21007972;28;20345;-64
2023/01/19 20:49:54;;;;;;;3.35;1.20;;;;;;;;;;21008031;28;20052;-64
2023/01/19 20:59:57;;;;;;;4.03;1.65;;;;;;;;;;21009378;28;20376;-64
2023/01/19 21:09:59;;;;;;;3.58;1.67;;;;;;;;;;21005262;28;20087;-65
2023/01/19 21:20:01;;;;;;;3.03;1.20;;;;;;;;;;21006404;28;20052;-64
2023/01/19 21:30:04;;;;;;;3.05;1.25;;;;;;;;;;21003426;28;20048;-66
2023/01/19 21:40:06;;;;;;;3.75;1.80;;;;;;;;;;21004394;28;20069;-64
2023/01/19 21:50:09;;;;;;;3.03;1.65;;;;;;;;;;21005895;28;20060;-67
2023/01/19 22:00:11;;;;;;;3.15;1.58;;;;;;;;;;21002998;28;20053;-64
2023/01/19 22:10:12;;;;;;;2.88;1.10;;;;;;;;;;21002021;28;20051;-65
2023/01/19 22:20:15;;;;;;;3.00;1.42;;;;;;;;;;20999991;28;20071;-65
2023/01/19 22:30:18;;;;;;;2.33;1.20;;;;;;;;;;20999379;28;20040;-66
2023/01/19 22:40:20;;;;;;;1.40;0.90;;;;;;;;;;20998290;28;20140;-65
2023/01/19 22:50:22;;;;;;;3.15;1.30;;;;;;;;;;20998617;28;20127;-65
2023/01/19 23:00:23;;;;;;;1.73;1.10;;;;;;;;;;20997444;28;20060;-65
2023/01/19 23:10:25;;;;;;;1.85;1.00;;;;;;;;;;20999294;28;20047;-64
2023/01/19 23:20:30;;;;;;;2.05;1.00;;;;;;;;;;20996037;28;20060;-65
2023/01/19 23:30:33;;;;;;;3.50;1.20;;;;;;;;;;20996857;28;20050;-64
2023/01/19 23:40:37;;;;;;;4.95;1.65;;;;;;;;;;20996043;28;20052;-65
2023/01/19 23:50:40;;;;;;;2.72;1.63;;;;;;;;;;21004542;28;20056;-65
